sensor_id;sensor_type;location;lat;lon;timestamp;pressure;altitude;pressure_sealevel;temperature;humidity
56681;BME280;42558;52.388;13.390;2022-10-17T00:00:56;101780.89;;;11.55;100.00
56681;BME280;42558;52.388;13.390;2022-10-17T00:03:23;101789.86;;;11.54;100.00
56681;BME280;42558;52.388;13.390;2022-10-17T00:05:50;101798.15;;;11.54;100.00
56681;BME280;42558;52.388;13.390;2022-10-17T00:08:18;101796.91;;;11.54;100.00
56681;BME280;42558;52.388;13.390;2022-10-17T00:10:56;101796.39;;;11.55;100.00
56681;BME280;42558;52.388;13.390;2022-10-17T00:13:25;101791.39;;;11.58;100.00
56681;BME280;42558;52.388;13.390;2022-10-17T00:15:53;101793.40;;;11.61;100.00
56681;BME280;42558;52.388;13.390;2022-10-17T00:18:20;101777.70;;;11.67;100.00
56681;BME280;42558;52.388;13.390;2022-10-17T00:20:47;101768.47;;;11.71;100.00
56681;BME280;42558;52.388;13.390;2022-10-17T00:23:14;101762.23;;;11.68;100.00
56681;BME280;42558;52.388;13.390;2022-10-17T00:25:41;101768.81;;;11.64;100.00
56681;BME280;42558;52.388;13.390;2022-10-17T00:28:13;101770.52;;;11.63;100.00
56681;BME280;42558;52.388;13.390;2022-10-17T00:30:40;101774.85;;;11.59;100.00
56681;BME280;42558;52.388;13.390;2022-10-17T00:33:07;101788.27;;;11.54;100.00
56681;BME280;42558;52.388;13.390;2022-10-17T00:35:34;101786.59;;;11.50;100.00
56681;BME280;42558;52.388;13.390;2022-10-17T00:38:01;101787.53;;;11.52;100.00
56681;BME280;42558;52.388;13.390;2022-10-17T00:40:28;101778.54;;;11.52;100.00
56681;BME280;42558;52.388;13.390;2022-10-17T00:42:54;101770.96;;;11.52;100.00
56681;BME280;42558;52.388;13.390;2022-10-17T00:45:30;101769.92;;;11.53;100.00
56681;BME280;42558;52.388;13.390;2022-10-17T00:48:04;101778.54;;;11.52;100.00
56681;BME280;42558;52.388;13.390;2022-10-17T00:50:38;101781.65;;;11.50;100.00
56681;BME280;42558;52.388;13.390;2022-10-17T00:53:08;101779.20;;;11.51;100.00
56681;BME280;42558;52.388;13.390;2022-10-17T00:55:44;101778.09;;;11.49;100.00
56681;BME280;42558;52.388;13.390;2022-10-17T00:58:13;101780.73;;;11.49;100.00
56681;BME280;42558;52.388;13.390;2022-10-17T01:00:45;101782.15;;;11.49;100.00
56681;BME280;42558;52.388;13.390;2022-10-17T01:03:13;101781.29;;;11.50;100.00
56681;BME280;42558;52.388;13.390;2022-10-17T01:05:40;101785.14;;;11.49;100.00
56681;BME280;42558;52.388;13.390;2022-10-17T01:08:08;101786.34;;;11.48;100.00
56681;BME280;42558;52.388;13.390;2022-10-17T01:10:57;101791.45;;;11.48;100.00
56681;BME280;42558;52.388;13.390;2022-10-17T01:13:36;101787.55;;;11.46;100.00
56681;BME280;42558;52.388;13.390;2022-10-17T01:16:19;101782.14;;;11.48;100.00
56681;BME280;42558;52.388;13.390;2022-10-17T01:27:56;101766.70;;;11.51;100.00
56681;BME280;42558;52.388;13.390;2022-10-17T01:33:51;101762.56;;;11.40;100.00
56681;BME280;42558;52.388;13.390;2022-10-17T01:42:04;101752.77;;;11.30;100.00
56681;BME280;42558;52.388;13.390;2022-10-17T01:44:46;101754.22;;;11.31;100.00
56681;BME280;42558;52.388;13.390;2022-10-17T01:47:23;101748.85;;;11.28;100.00
56681;BME280;42558;52.388;13.390;2022-10-17T01:49:57;101748.16;;;11.22;100.00
56681;BME280;42558;52.388;13.390;2022-10-17T01:52:38;101751.46;;;11.21;100.00
56681;BME280;42558;52.388;13.390;2022-10-17T01:55:17;101751.74;;;11.17;100.00
56681;BME280;42558;52.388;13.390;2022-10-17T01:57:54;101752.33;;;11.13;100.00
56681;BME280;42558;52.388;13.390;2022-10-17T02:00:26;101750.23;;;11.13;100.00
56681;BME280;42558;52.388;13.390;2022-10-17T02:03:01;101757.45;;;11.14;100.00
56681;BME280;42558;52.388;13.390;2022-10-17T02:05:37;101759.06;;;11.15;100.00
56681;BME280;42558;52.388;13.390;2022-10-17T02:08:05;101755.36;;;11.15;100.00
56681;BME280;42558;52.388;13.390;2022-10-17T02:10:52;101756.23;;;11.15;100.00
56681;BME280;42558;52.388;13.390;2022-10-17T02:14:16;101756.58;;;11.14;100.00
56681;BME280;42558;52.388;13.390;2022-10-17T02:20:29;101759.50;;;11.11;100.00
56681;BME280;42558;52.388;13.390;2022-10-17T02:26:24;101756.88;;;11.18;100.00
56681;BME280;42558;52.388;13.390;2022-10-17T02:29:16;101756.31;;;11.11;100.00
56681;BME280;42558;52.388;13.390;2022-10-17T02:31:57;101752.02;;;11.08;100.00
56681;BME280;42558;52.388;13.390;2022-10-17T02:34:34;101752.88;;;11.01;100.00
56681;BME280;42558;52.388;13.390;2022-10-17T02:37:07;101748.84;;;10.96;100.00
56681;BME280;42558;52.388;13.390;2022-10-17T02:39:37;101746.84;;;10.99;100.00
56681;BME280;42558;52.388;13.390;2022-10-17T02:42:12;101743.67;;;10.99;100.00
56681;BME280;42558;52.388;13.390;2022-10-17T02:44:43;101744.17;;;10.98;100.00
56681;BME280;42558;52.388;13.390;2022-10-17T02:47:26;101743.27;;;10.97;100.00
56681;BME280;42558;52.388;13.390;2022-10-17T02:49:57;101742.29;;;11.00;100.00
56681;BME280;42558;52.388;13.390;2022-10-17T02:52:34;101740.77;;;11.02;100.00
56681;BME280;42558;52.388;13.390;2022-10-17T02:55:15;101732.91;;;11.11;100.00
56681;BME280;42558;52.388;13.390;2022-10-17T02:57:54;101733.84;;;11.20;100.00
56681;BME280;42558;52.388;13.390;2022-10-17T03:00:24;101734.07;;;11.22;100.00
56681;BME280;42558;52.388;13.390;2022-10-17T03:02:53;101734.86;;;11.25;100.00
56681;BME280;42558;52.388;13.390;2022-10-17T03:05:32;101736.87;;;11.28;100.00
56681;BME280;42558;52.388;13.390;2022-10-17T03:07:58;101734.01;;;11.33;100.00
56681;BME280;42558;52.388;13.390;2022-10-17T03:10:25;101735.77;;;11.33;100.00
56681;BME280;42558;52.388;13.390;2022-10-17T03:12:52;101742.71;;;11.35;100.00
56681;BME280;42558;52.388;13.390;2022-10-17T03:15:18;101742.23;;;11.43;100.00
56681;BME280;42558;52.388;13.390;2022-10-17T03:17:45;101743.61;;;11.50;100.00
56681;BME280;42558;52.388;13.390;2022-10-17T03:20:12;101740.34;;;11.53;100.00
56681;BME280;42558;52.388;13.390;2022-10-17T03:22:39;101740.15;;;11.59;100.00
56681;BME280;42558;52.388;13.390;2022-10-17T03:25:06;101735.96;;;11.61;100.00
56681;BME280;42558;52.388;13.390;2022-10-17T03:27:33;101728.60;;;11.62;100.00
56681;BME280;42558;52.388;13.390;2022-10-17T03:30:00;101730.39;;;11.70;100.00
56681;BME280;42558;52.388;13.390;2022-10-17T03:32:27;101726.62;;;11.75;100.00
56681;BME280;42558;52.388;13.390;2022-10-17T03:34:54;101724.29;;;11.80;100.00
56681;BME280;42558;52.388;13.390;2022-10-17T03:37:20;101722.02;;;11.81;100.00
56681;BME280;42558;52.388;13.390;2022-10-17T03:39:47;101724.17;;;11.82;100.00
56681;BME280;42558;52.388;13.390;2022-10-17T03:42:16;101719.45;;;11.90;100.00
56681;BME280;42558;52.388;13.390;2022-10-17T03:44:43;101716.80;;;11.98;100.00
56681;BME280;42558;52.388;13.390;2022-10-17T03:47:10;101713.39;;;12.02;100.00
56681;BME280;42558;52.388;13.390;2022-10-17T03:49:40;101713.45;;;11.97;100.00
56681;BME280;42558;52.388;13.390;2022-10-17T03:52:11;101709.42;;;11.99;100.00
56681;BME280;42558;52.388;13.390;2022-10-17T03:54:39;101707.98;;;11.97;100.00
56681;BME280;42558;52.388;13.390;2022-10-17T03:57:05;101707.55;;;11.94;100.00
56681;BME280;42558;52.388;13.390;2022-10-17T03:59:32;101709.59;;;11.98;100.00
56681;BME280;42558;52.388;13.390;2022-10-17T04:01:59;101704.20;;;12.02;100.00
56681;BME280;42558;52.388;13.390;2022-10-17T04:04:26;101709.13;;;12.09;100.00
56681;BME280;42558;52.388;13.390;2022-10-17T04:06:53;101705.94;;;12.09;100.00
56681;BME280;42558;52.388;13.390;2022-10-17T04:09:20;101707.49;;;12.07;100.00
56681;BME280;42558;52.388;13.390;2022-10-17T04:11:46;101701.64;;;12.06;100.00
56681;BME280;42558;52.388;13.390;2022-10-17T04:14:13;101701.44;;;12.04;100.00
56681;BME280;42558;52.388;13.390;2022-10-17T04:16:40;101700.20;;;12.03;100.00
56681;BME280;42558;52.388;13.390;2022-10-17T04:19:11;101694.98;;;11.98;100.00
56681;BME280;42558;52.388;13.390;2022-10-17T04:21:39;101695.96;;;11.95;100.00
56681;BME280;42558;52.388;13.390;2022-10-17T04:24:07;101695.60;;;11.96;100.00
56681;BME280;42558;52.388;13.390;2022-10-17T04:26:35;101695.19;;;12.00;100.00
56681;BME280;42558;52.388;13.390;2022-10-17T04:29:02;101698.29;;;11.97;100.00
56681;BME280;42558;52.388;13.390;2022-10-17T04:31:29;101696.45;;;11.94;100.00
56681;BME280;42558;52.388;13.390;2022-10-17T04:33:55;101696.17;;;11.90;100.00
56681;BME280;42558;52.388;13.390;2022-10-17T04:36:22;101701.89;;;11.93;100.00
56681;BME280;42558;52.388;13.390;2022-10-17T04:38:49;101695.98;;;11.89;100.00
56681;BME280;42558;52.388;13.390;2022-10-17T04:41:17;101698.46;;;11.90;100.00
56681;BME280;42558;52.388;13.390;2022-10-17T04:43:44;101695.41;;;11.87;100.00
56681;BME280;42558;52.388;13.390;2022-10-17T04:46:16;101696.98;;;11.80;100.00
56681;BME280;42558;52.388;13.390;2022-10-17T04:48:44;101695.19;;;11.79;100.00
56681;BME280;42558;52.388;13.390;2022-10-17T04:51:15;101693.70;;;11.76;100.00
56681;BME280;42558;52.388;13.390;2022-10-17T04:53:45;101699.14;;;11.67;100.00
56681;BME280;42558;52.388;13.390;2022-10-17T04:56:20;101698.54;;;11.64;100.00
56681;BME280;42558;52.388;13.390;2022-10-17T04:58:49;101697.02;;;11.67;100.00
56681;BME280;42558;52.388;13.390;2022-10-17T05:01:21;101700.36;;;11.67;100.00
56681;BME280;42558;52.388;13.390;2022-10-17T05:03:49;101702.80;;;11.66;100.00
56681;BME280;42558;52.388;13.390;2022-10-17T05:06:22;101705.92;;;11.64;100.00
56681;BME280;42558;52.388;13.390;2022-10-17T05:08:50;101706.15;;;11.52;100.00
56681;BME280;42558;52.388;13.390;2022-10-17T05:11:20;101706.02;;;11.47;100.00
56681;BME280;42558;52.388;13.390;2022-10-17T05:14:00;101706.33;;;11.51;100.00
56681;BME280;42558;52.388;13.390;2022-10-17T05:16:28;101706.47;;;11.51;100.00
56681;BME280;42558;52.388;13.390;2022-10-17T05:18:57;101705.21;;;11.50;100.00
56681;BME280;42558;52.388;13.390;2022-10-17T05:21:27;101702.67;;;11.47;100.00
56681;BME280;42558;52.388;13.390;2022-10-17T05:23:55;101704.48;;;11.49;100.00
56681;BME280;42558;52.388;13.390;2022-10-17T05:26:22;101709.20;;;11.47;100.00
56681;BME280;42558;52.388;13.390;2022-10-17T05:28:49;101707.29;;;11.48;100.00
56681;BME280;42558;52.388;13.390;2022-10-17T05:31:18;101702.69;;;11.48;100.00
56681;BME280;42558;52.388;13.390;2022-10-17T05:33:45;101698.13;;;11.48;100.00
56681;BME280;42558;52.388;13.390;2022-10-17T05:36:12;101702.90;;;11.49;100.00
56681;BME280;42558;52.388;13.390;2022-10-17T05:38:39;101698.27;;;11.46;100.00
56681;BME280;42558;52.388;13.390;2022-10-17T05:41:05;101701.95;;;11.45;100.00
56681;BME280;42558;52.388;13.390;2022-10-17T05:43:33;101702.34;;;11.47;100.00
56681;BME280;42558;52.388;13.390;2022-10-17T05:46:05;101703.52;;;11.46;100.00
56681;BME280;42558;52.388;13.390;2022-10-17T05:48:33;101702.42;;;11.51;100.00
56681;BME280;42558;52.388;13.390;2022-10-17T05:51:04;101701.47;;;11.62;100.00
56681;BME280;42558;52.388;13.390;2022-10-17T05:53:34;101701.61;;;11.68;100.00
56681;BME280;42558;52.388;13.390;2022-10-17T05:56:04;101700.23;;;11.69;100.00
56681;BME280;42558;52.388;13.390;2022-10-17T05:58:33;101707.23;;;11.74;100.00
56681;BME280;42558;52.388;13.390;2022-10-17T06:01:19;101709.76;;;11.76;100.00
56681;BME280;42558;52.388;13.390;2022-10-17T06:03:46;101716.93;;;11.81;100.00
56681;BME280;42558;52.388;13.390;2022-10-17T06:06:14;101724.73;;;11.77;100.00
56681;BME280;42558;52.388;13.390;2022-10-17T06:08:42;101727.41;;;11.78;100.00
56681;BME280;42558;52.388;13.390;2022-10-17T06:11:11;101726.05;;;11.80;100.00
56681;BME280;42558;52.388;13.390;2022-10-17T06:13:39;101728.83;;;11.85;100.00
56681;BME280;42558;52.388;13.390;2022-10-17T06:16:07;101732.58;;;11.86;100.00
56681;BME280;42558;52.388;13.390;2022-10-17T06:18:34;101744.41;;;11.88;100.00
56681;BME280;42558;52.388;13.390;2022-10-17T06:21:07;101741.89;;;11.93;100.00
56681;BME280;42558;52.388;13.390;2022-10-17T06:23:34;101746.05;;;11.97;100.00
56681;BME280;42558;52.388;13.390;2022-10-17T06:26:04;101743.84;;;12.00;100.00
56681;BME280;42558;52.388;13.390;2022-10-17T06:28:32;101750.34;;;12.00;100.00
56681;BME280;42558;52.388;13.390;2022-10-17T06:31:08;101755.90;;;12.04;100.00
56681;BME280;42558;52.388;13.390;2022-10-17T06:33:35;101763.36;;;12.06;100.00
56681;BME280;42558;52.388;13.390;2022-10-17T06:36:05;101761.84;;;12.09;100.00
56681;BME280;42558;52.388;13.390;2022-10-17T06:38:34;101761.23;;;12.14;100.00
56681;BME280;42558;52.388;13.390;2022-10-17T06:41:13;101764.63;;;12.16;100.00
56681;BME280;42558;52.388;13.390;2022-10-17T06:43:42;101768.16;;;12.23;100.00
56681;BME280;42558;52.388;13.390;2022-10-17T06:46:14;101770.58;;;12.29;100.00
56681;BME280;42558;52.388;13.390;2022-10-17T06:48:41;101775.19;;;12.38;100.00
56681;BME280;42558;52.388;13.390;2022-10-17T06:51:09;101771.13;;;12.45;100.00
56681;BME280;42558;52.388;13.390;2022-10-17T06:53:39;101771.27;;;12.52;100.00
56681;BME280;42558;52.388;13.390;2022-10-17T06:56:07;101772.01;;;12.61;100.00
56681;BME280;42558;52.388;13.390;2022-10-17T06:58:38;101769.63;;;12.74;100.00
56681;BME280;42558;52.388;13.390;2022-10-17T07:01:11;101769.75;;;12.97;100.00
56681;BME280;42558;52.388;13.390;2022-10-17T07:03:39;101770.27;;;13.14;100.00
56681;BME280;42558;52.388;13.390;2022-10-17T07:06:07;101766.45;;;13.45;100.00
56681;BME280;42558;52.388;13.390;2022-10-17T07:08:34;101769.52;;;14.13;100.00
56681;BME280;42558;52.388;13.390;2022-10-17T07:11:13;101772.58;;;14.93;100.00
56681;BME280;42558;52.388;13.390;2022-10-17T07:13:41;101779.79;;;15.51;100.00
56681;BME280;42558;52.388;13.390;2022-10-17T07:16:09;101786.88;;;15.34;100.00
56681;BME280;42558;52.388;13.390;2022-10-17T07:18:36;101784.91;;;15.16;100.00
56681;BME280;42558;52.388;13.390;2022-10-17T07:21:03;101787.16;;;14.97;100.00
56681;BME280;42558;52.388;13.390;2022-10-17T07:23:30;101785.27;;;14.60;100.00
56681;BME280;42558;52.388;13.390;2022-10-17T07:26:06;101787.63;;;14.64;100.00
56681;BME280;42558;52.388;13.390;2022-10-17T07:28:37;101794.36;;;15.06;100.00
56681;BME280;42558;52.388;13.390;2022-10-17T07:31:11;101789.06;;;15.76;100.00
56681;BME280;42558;52.388;13.390;2022-10-17T07:33:38;101787.06;;;17.16;99.73
56681;BME280;42558;52.388;13.390;2022-10-17T07:36:05;101787.60;;;17.98;90.55
56681;BME280;42558;52.388;13.390;2022-10-17T07:38:34;101790.21;;;18.26;88.50
56681;BME280;42558;52.388;13.390;2022-10-17T07:41:05;101794.30;;;19.03;84.35
56681;BME280;42558;52.388;13.390;2022-10-17T07:43:32;101785.06;;;19.83;81.12
56681;BME280;42558;52.388;13.390;2022-10-17T07:46:00;101785.17;;;19.93;78.79
56681;BME280;42558;52.388;13.390;2022-10-17T07:48:28;101786.44;;;19.67;79.30
56681;BME280;42558;52.388;13.390;2022-10-17T07:50:55;101790.38;;;18.02;84.88
56681;BME280;42558;52.388;13.390;2022-10-17T07:53:22;101790.95;;;16.97;92.46
56681;BME280;42558;52.388;13.390;2022-10-17T07:55:49;101789.02;;;16.67;95.81
56681;BME280;42558;52.388;13.390;2022-10-17T07:58:16;101790.68;;;16.78;96.97
56681;BME280;42558;52.388;13.390;2022-10-17T08:00:43;101792.71;;;16.95;95.38
56681;BME280;42558;52.388;13.390;2022-10-17T08:03:14;101794.10;;;16.58;97.75
56681;BME280;42558;52.388;13.390;2022-10-17T08:05:40;101795.41;;;16.38;97.54
56681;BME280;42558;52.388;13.390;2022-10-17T08:08:07;101795.06;;;16.39;99.63
56681;BME280;42558;52.388;13.390;2022-10-17T08:10:34;101800.11;;;16.54;99.18
56681;BME280;42558;52.388;13.390;2022-10-17T08:13:01;101796.95;;;16.58;99.43
56681;BME280;42558;52.388;13.390;2022-10-17T08:15:27;101798.20;;;16.60;99.90
56681;BME280;42558;52.388;13.390;2022-10-17T08:17:58;101794.52;;;16.67;97.78
56681;BME280;42558;52.388;13.390;2022-10-17T08:20:25;101790.17;;;16.78;97.58
56681;BME280;42558;52.388;13.390;2022-10-17T08:22:53;101792.71;;;16.92;96.72
56681;BME280;42558;52.388;13.390;2022-10-17T08:25:21;101793.30;;;17.14;95.97
56681;BME280;42558;52.388;13.390;2022-10-17T08:27:48;101794.61;;;17.30;94.94
56681;BME280;42558;52.388;13.390;2022-10-17T08:30:16;101798.84;;;17.22;95.07
56681;BME280;42558;52.388;13.390;2022-10-17T08:32:43;101796.73;;;17.32;94.93
56681;BME280;42558;52.388;13.390;2022-10-17T08:35:10;101789.16;;;17.64;93.79
56681;BME280;42558;52.388;13.390;2022-10-17T08:37:37;101788.65;;;18.08;93.57
56681;BME280;42558;52.388;13.390;2022-10-17T08:40:06;101784.33;;;18.43;91.41
56681;BME280;42558;52.388;13.390;2022-10-17T08:43:11;101782.36;;;18.46;87.56
56681;BME280;42558;52.388;13.390;2022-10-17T08:46:00;101780.23;;;18.40;87.50
56681;BME280;42558;52.388;13.390;2022-10-17T08:48:35;101777.27;;;18.85;86.31
56681;BME280;42558;52.388;13.390;2022-10-17T08:51:28;101771.48;;;19.83;82.04
56681;BME280;42558;52.388;13.390;2022-10-17T08:54:11;101760.85;;;21.22;76.37
56681;BME280;42558;52.388;13.390;2022-10-17T08:56:44;101767.66;;;19.88;78.43
56681;BME280;42558;52.388;13.390;2022-10-17T08:59:35;101765.83;;;20.37;79.43
56681;BME280;42558;52.388;13.390;2022-10-17T09:07:55;101779.54;;;19.31;82.67
56681;BME280;42558;52.388;13.390;2022-10-17T09:13:20;101785.52;;;19.10;83.44
56681;BME280;42558;52.388;13.390;2022-10-17T09:19:25;101787.60;;;18.86;84.36
56681;BME280;42558;52.388;13.390;2022-10-17T09:22:14;101787.55;;;19.01;84.34
56681;BME280;42558;52.388;13.390;2022-10-17T09:24:49;101788.56;;;19.10;83.14
56681;BME280;42558;52.388;13.390;2022-10-17T09:27:31;101788.77;;;19.04;82.91
56681;BME280;42558;52.388;13.390;2022-10-17T09:30:42;101786.96;;;19.09;83.17
56681;BME280;42558;52.388;13.390;2022-10-17T09:36:29;101783.06;;;19.37;82.24
56681;BME280;42558;52.388;13.390;2022-10-17T09:39:12;101774.06;;;19.96;80.66
56681;BME280;42558;52.388;13.390;2022-10-17T09:41:52;101775.55;;;19.92;79.03
56681;BME280;42558;52.388;13.390;2022-10-17T09:44:32;101772.33;;;19.92;79.82
56681;BME280;42558;52.388;13.390;2022-10-17T09:47:28;101766.83;;;19.87;79.17
56681;BME280;42558;52.388;13.390;2022-10-17T09:49:57;101768.63;;;19.87;79.47
56681;BME280;42558;52.388;13.390;2022-10-17T09:52:38;101771.71;;;20.20;79.25
56681;BME280;42558;52.388;13.390;2022-10-17T09:55:16;101771.95;;;20.66;76.72
56681;BME280;42558;52.388;13.390;2022-10-17T09:57:54;101764.80;;;21.34;76.08
56681;BME280;42558;52.388;13.390;2022-10-17T10:00:38;101760.80;;;21.12;74.02
56681;BME280;42558;52.388;13.390;2022-10-17T10:03:23;101754.05;;;21.21;75.48
56681;BME280;42558;52.388;13.390;2022-10-17T10:06:06;101761.55;;;21.23;75.40
56681;BME280;42558;52.388;13.390;2022-10-17T10:08:55;101763.92;;;21.06;74.34
56681;BME280;42558;52.388;13.390;2022-10-17T10:11:49;101758.95;;;21.42;74.17
56681;BME280;42558;52.388;13.390;2022-10-17T10:14:30;101758.13;;;21.61;72.98
56681;BME280;42558;52.388;13.390;2022-10-17T10:17:03;101756.82;;;21.76;72.56
56681;BME280;42558;52.388;13.390;2022-10-17T10:19:32;101755.89;;;22.65;68.40
56681;BME280;42558;52.388;13.390;2022-10-17T10:22:13;101761.85;;;22.97;66.83
56681;BME280;42558;52.388;13.390;2022-10-17T10:24:40;101763.28;;;22.89;67.99
56681;BME280;42558;52.388;13.390;2022-10-17T10:27:16;101757.08;;;22.12;68.30
56681;BME280;42558;52.388;13.390;2022-10-17T10:29:51;101759.84;;;21.66;72.21
56681;BME280;42558;52.388;13.390;2022-10-17T10:32:31;101757.69;;;21.55;71.47
56681;BME280;42558;52.388;13.390;2022-10-17T10:35:27;101757.85;;;21.45;72.07
56681;BME280;42558;52.388;13.390;2022-10-17T10:37:58;101759.76;;;21.60;70.71
56681;BME280;42558;52.388;13.390;2022-10-17T10:40:47;101754.71;;;21.73;69.57
56681;BME280;42558;52.388;13.390;2022-10-17T10:43:47;101750.11;;;22.01;70.55
56681;BME280;42558;52.388;13.390;2022-10-17T10:46:22;101748.00;;;22.38;67.51
56681;BME280;42558;52.388;13.390;2022-10-17T10:49:01;101748.14;;;22.58;68.17
56681;BME280;42558;52.388;13.390;2022-10-17T10:51:40;101751.38;;;22.94;66.07
56681;BME280;42558;52.388;13.390;2022-10-17T10:54:27;101750.31;;;23.01;66.26
56681;BME280;42558;52.388;13.390;2022-10-17T10:57:01;101746.57;;;22.92;64.88
56681;BME280;42558;52.388;13.390;2022-10-17T11:06:11;101741.16;;;23.25;63.62
56681;BME280;42558;52.388;13.390;2022-10-17T11:08:49;101745.85;;;22.56;64.48
56681;BME280;42558;52.388;13.390;2022-10-17T11:11:31;101741.85;;;22.50;64.37
56681;BME280;42558;52.388;13.390;2022-10-17T11:14:05;101733.41;;;22.51;65.04
56681;BME280;42558;52.388;13.390;2022-10-17T11:17:18;101731.97;;;22.69;64.30
56681;BME280;42558;52.388;13.390;2022-10-17T11:20:05;101729.09;;;22.87;63.88
56681;BME280;42558;52.388;13.390;2022-10-17T11:22:45;101724.65;;;22.68;62.51
56681;BME280;42558;52.388;13.390;2022-10-17T11:25:33;101721.39;;;22.69;63.35
56681;BME280;42558;52.388;13.390;2022-10-17T11:28:03;101721.73;;;22.70;63.51
56681;BME280;42558;52.388;13.390;2022-10-17T11:30:59;101714.11;;;22.66;65.11
56681;BME280;42558;52.388;13.390;2022-10-17T11:33:56;101710.45;;;22.60;64.69
56681;BME280;42558;52.388;13.390;2022-10-17T11:36:31;101715.16;;;22.67;64.00
56681;BME280;42558;52.388;13.390;2022-10-17T11:39:09;101712.81;;;22.60;62.00
56681;BME280;42558;52.388;13.390;2022-10-17T11:41:58;101713.88;;;22.51;63.20
56681;BME280;42558;52.388;13.390;2022-10-17T11:44:38;101712.34;;;22.56;64.37
56681;BME280;42558;52.388;13.390;2022-10-17T11:47:39;101710.98;;;22.61;63.01
56681;BME280;42558;52.388;13.390;2022-10-17T11:50:39;101709.23;;;22.67;62.49
56681;BME280;42558;52.388;13.390;2022-10-17T11:53:53;101705.24;;;22.70;63.29
56681;BME280;42558;52.388;13.390;2022-10-17T11:57:09;101706.36;;;22.76;62.91
56681;BME280;42558;52.388;13.390;2022-10-17T12:02:29;101708.55;;;22.74;62.01
56681;BME280;42558;52.388;13.390;2022-10-17T12:05:13;101704.73;;;22.86;61.81
56681;BME280;42558;52.388;13.390;2022-10-17T12:08:14;101697.86;;;22.88;61.54
56681;BME280;42558;52.388;13.390;2022-10-17T12:13:55;101705.31;;;23.00;61.98
56681;BME280;42558;52.388;13.390;2022-10-17T12:21:53;101704.84;;;23.13;62.43
56681;BME280;42558;52.388;13.390;2022-10-17T12:24:41;101693.91;;;23.27;60.42
56681;BME280;42558;52.388;13.390;2022-10-17T12:27:42;101690.27;;;23.29;59.81
56681;BME280;42558;52.388;13.390;2022-10-17T12:35:36;101688.97;;;23.24;59.72
56681;BME280;42558;52.388;13.390;2022-10-17T12:38:19;101691.38;;;23.28;60.27
56681;BME280;42558;52.388;13.390;2022-10-17T12:40:52;101698.55;;;23.21;60.50
56681;BME280;42558;52.388;13.390;2022-10-17T12:46:00;101695.46;;;23.00;60.41
56681;BME280;42558;52.388;13.390;2022-10-17T12:51:18;101689.60;;;22.88;61.28
56681;BME280;42558;52.388;13.390;2022-10-17T12:54:13;101692.50;;;22.88;61.60
56681;BME280;42558;52.388;13.390;2022-10-17T12:56:46;101694.44;;;22.90;62.03
56681;BME280;42558;52.388;13.390;2022-10-17T12:59:21;101697.80;;;22.91;62.49
56681;BME280;42558;52.388;13.390;2022-10-17T13:01:56;101694.55;;;22.93;61.62
56681;BME280;42558;52.388;13.390;2022-10-17T13:04:26;101689.11;;;23.02;60.37
56681;BME280;42558;52.388;13.390;2022-10-17T13:06:57;101685.98;;;22.98;60.20
56681;BME280;42558;52.388;13.390;2022-10-17T13:09:42;101689.67;;;22.85;61.57
56681;BME280;42558;52.388;13.390;2022-10-17T13:12:19;101679.44;;;22.85;61.04
56681;BME280;42558;52.388;13.390;2022-10-17T13:14:51;101677.45;;;22.87;61.88
56681;BME280;42558;52.388;13.390;2022-10-17T13:17:29;101677.41;;;22.80;62.67
56681;BME280;42558;52.388;13.390;2022-10-17T13:19:57;101678.67;;;22.88;60.97
56681;BME280;42558;52.388;13.390;2022-10-17T13:22:30;101680.05;;;22.98;61.62
56681;BME280;42558;52.388;13.390;2022-10-17T13:25:14;101681.38;;;22.96;61.90
56681;BME280;42558;52.388;13.390;2022-10-17T13:27:41;101680.70;;;22.94;62.37
56681;BME280;42558;52.388;13.390;2022-10-17T13:30:31;101682.60;;;22.90;61.58
56681;BME280;42558;52.388;13.390;2022-10-17T13:33:00;101680.45;;;22.97;61.55
56681;BME280;42558;52.388;13.390;2022-10-17T13:35:34;101682.23;;;22.97;60.90
56681;BME280;42558;52.388;13.390;2022-10-17T13:38:27;101686.16;;;22.98;61.10
56681;BME280;42558;52.388;13.390;2022-10-17T13:40:55;101682.31;;;23.02;61.66
56681;BME280;42558;52.388;13.390;2022-10-17T13:43:42;101686.05;;;23.03;62.09
56681;BME280;42558;52.388;13.390;2022-10-17T13:46:30;101684.14;;;22.92;61.33
56681;BME280;42558;52.388;13.390;2022-10-17T13:49:14;101680.36;;;22.84;61.45
56681;BME280;42558;52.388;13.390;2022-10-17T13:51:45;101679.80;;;22.84;61.28
56681;BME280;42558;52.388;13.390;2022-10-17T13:54:42;101678.45;;;22.81;61.69
56681;BME280;42558;52.388;13.390;2022-10-17T13:57:27;101683.73;;;22.86;61.21
56681;BME280;42558;52.388;13.390;2022-10-17T14:00:18;101680.59;;;22.91;61.07
56681;BME280;42558;52.388;13.390;2022-10-17T14:02:46;101687.78;;;22.81;62.67
56681;BME280;42558;52.388;13.390;2022-10-17T14:05:19;101693.52;;;22.81;61.81
56681;BME280;42558;52.388;13.390;2022-10-17T14:08:02;101687.87;;;22.85;60.98
56681;BME280;42558;52.388;13.390;2022-10-17T14:10:43;101696.58;;;22.91;61.17
56681;BME280;42558;52.388;13.390;2022-10-17T14:13:28;101695.78;;;22.93;61.56
56681;BME280;42558;52.388;13.390;2022-10-17T14:16:00;101692.98;;;22.98;61.48
56681;BME280;42558;52.388;13.390;2022-10-17T14:18:34;101685.59;;;23.44;60.07
56681;BME280;42558;52.388;13.390;2022-10-17T14:21:04;101689.70;;;23.15;60.61